createdAt,value
2019-03-27T00:01:15.641Z,7.80
2019-03-27T00:03:44.039Z,7.80
2019-03-27T00:06:12.193Z,7.90
2019-03-27T00:08:40.294Z,8.00
2019-03-27T00:11:08.708Z,8.00
2019-03-27T00:13:37.338Z,7.90
2019-03-27T00:16:07.310Z,7.90
2019-03-27T00:18:35.500Z,7.90
2019-03-27T00:21:03.705Z,7.80
2019-03-27T00:23:31.846Z,7.80
2019-03-27T00:26:00.056Z,7.80
2019-03-27T00:28:28.216Z,7.70
2019-03-27T00:30:56.852Z,7.70
2019-03-27T00:33:25.064Z,7.70
2019-03-27T00:35:53.147Z,7.60
2019-03-27T00:38:21.251Z,7.50
2019-03-27T00:40:49.332Z,7.50
2019-03-27T00:43:17.457Z,7.60
2019-03-27T00:45:46.042Z,7.60
2019-03-27T00:48:14.606Z,7.70
2019-03-27T00:50:42.767Z,7.70
2019-03-27T00:53:10.840Z,7.80
2019-03-27T00:55:39.040Z,7.80
2019-03-27T00:58:07.112Z,8.00
2019-03-27T01:01:12.725Z,8.00
2019-03-27T01:03:40.957Z,8.00
2019-03-27T01:06:09.553Z,8.00
2019-03-27T01:08:37.769Z,7.90
2019-03-27T01:11:06.373Z,8.00
2019-03-27T01:13:36.992Z,8.10
2019-03-27T01:16:05.365Z,8.10
2019-03-27T01:18:33.644Z,8.00
2019-03-27T01:21:01.723Z,7.80
2019-03-27T01:23:29.824Z,7.70
2019-03-27T01:25:57.963Z,7.60
2019-03-27T01:28:26.027Z,7.60
2019-03-27T01:30:54.311Z,7.60
2019-03-27T01:33:22.536Z,7.60
2019-03-27T01:35:50.834Z,7.50
2019-03-27T01:38:19.408Z,7.50
2019-03-27T01:40:47.486Z,7.60
2019-03-27T01:43:15.576Z,7.50
2019-03-27T01:45:52.860Z,7.60
2019-03-27T01:48:13.678Z,7.80
2019-03-27T01:50:41.843Z,8.00
2019-03-27T01:53:10.469Z,8.10
2019-03-27T01:55:38.564Z,8.10
2019-03-27T01:58:06.636Z,8.10
2019-03-27T02:00:35.356Z,8.00
2019-03-27T02:03:03.644Z,8.00
2019-03-27T02:05:32.019Z,7.90
2019-03-27T02:08:00.101Z,7.90
2019-03-27T02:10:28.272Z,7.90
2019-03-27T02:12:56.333Z,7.80
2019-03-27T02:15:24.636Z,7.70
2019-03-27T02:17:52.724Z,7.90
2019-03-27T02:20:21.198Z,8.00
2019-03-27T02:22:49.273Z,8.10
2019-03-27T02:25:17.408Z,8.00
2019-03-27T02:27:45.593Z,8.10
2019-03-27T02:30:13.840Z,8.10
2019-03-27T02:32:41.990Z,8.00
2019-03-27T02:35:10.232Z,7.90
2019-03-27T02:37:38.524Z,7.90
2019-03-27T02:40:06.856Z,7.80
2019-03-27T02:42:35.008Z,7.90
2019-03-27T02:45:03.330Z,8.00
2019-03-27T02:47:31.467Z,8.10
2019-03-27T02:49:59.685Z,8.00
2019-03-27T02:52:27.880Z,7.90
2019-03-27T02:54:56.037Z,7.80
2019-03-27T02:57:24.067Z,7.70
2019-03-27T02:59:52.132Z,7.70
2019-03-27T03:02:21.021Z,7.80
2019-03-27T03:04:49.498Z,7.90
2019-03-27T03:07:17.582Z,7.90
2019-03-27T03:09:45.695Z,7.80
2019-03-27T03:12:16.997Z,7.80
2019-03-27T03:14:45.194Z,7.80
2019-03-27T03:17:16.421Z,7.70
2019-03-27T03:19:44.538Z,7.80
2019-03-27T03:22:12.908Z,7.90
2019-03-27T03:24:41.033Z,7.90
2019-03-27T03:27:09.137Z,7.90
2019-03-27T03:29:37.416Z,7.90
2019-03-27T03:32:06.229Z,7.80
2019-03-27T03:34:34.556Z,7.80
2019-03-27T03:37:02.878Z,7.80
2019-03-27T03:39:31.113Z,7.80
2019-03-27T03:41:59.285Z,7.80
2019-03-27T03:44:27.554Z,7.80
2019-03-27T03:47:00.179Z,7.90
2019-03-27T03:49:26.440Z,7.90
2019-03-27T03:51:57.790Z,7.80
2019-03-27T03:54:26.268Z,7.80
2019-03-27T03:56:57.203Z,7.80
2019-03-27T03:59:28.019Z,7.70
2019-03-27T04:01:58.054Z,7.60
2019-03-27T04:04:27.068Z,7.60
2019-03-27T04:06:55.386Z,7.70
2019-03-27T04:09:23.534Z,7.70
2019-03-27T04:11:51.814Z,7.70
2019-03-27T04:14:20.182Z,7.80
2019-03-27T04:16:48.310Z,7.70
2019-03-27T04:19:16.431Z,7.70
2019-03-27T04:21:44.780Z,7.70
2019-03-27T04:24:13.021Z,7.70
2019-03-27T04:26:41.639Z,7.50
2019-03-27T04:29:09.848Z,7.60
2019-03-27T04:31:37.914Z,7.60
2019-03-27T04:34:05.974Z,7.60
2019-03-27T04:36:34.023Z,7.50
2019-03-27T04:39:03.407Z,7.50
2019-03-27T04:41:31.561Z,7.60
2019-03-27T04:44:00.958Z,7.70
2019-03-27T04:46:29.139Z,7.60
2019-03-27T04:48:57.513Z,7.60
2019-03-27T04:51:25.693Z,7.70
2019-03-27T04:53:53.806Z,7.70
2019-03-27T04:56:21.829Z,7.80
2019-03-27T04:58:50.056Z,7.80
2019-03-27T05:01:18.557Z,7.90
2019-03-27T05:03:46.645Z,7.90
2019-03-27T05:06:14.769Z,7.90
2019-03-27T05:08:42.818Z,7.80
2019-03-27T05:11:10.840Z,7.80
2019-03-27T05:13:38.969Z,7.80
2019-03-27T05:16:07.094Z,7.80
2019-03-27T05:18:35.240Z,7.80
2019-03-27T05:21:03.331Z,7.80
2019-03-27T05:23:31.680Z,7.90
2019-03-27T05:25:59.868Z,7.90
2019-03-27T05:28:27.949Z,7.90
2019-03-27T05:30:55.964Z,8.00
2019-03-27T05:33:24.004Z,8.00
2019-03-27T05:35:52.432Z,8.10
2019-03-27T05:38:20.557Z,8.10
2019-03-27T05:40:48.741Z,8.10
2019-03-27T05:43:16.830Z,8.00
2019-03-27T05:45:44.945Z,8.00
2019-03-27T05:48:13.271Z,8.00
2019-03-27T05:50:41.348Z,8.10
2019-03-27T05:53:09.415Z,8.10
2019-03-27T05:55:37.554Z,8.10
2019-03-27T05:58:05.628Z,7.90
2019-03-27T06:00:33.751Z,7.90
2019-03-27T06:03:01.839Z,8.00
2019-03-27T06:05:29.894Z,8.00
2019-03-27T06:07:58.350Z,8.00
2019-03-27T06:10:32.869Z,8.10
2019-03-27T06:13:01.432Z,8.20
2019-03-27T06:15:29.481Z,8.20
2019-03-27T06:17:57.636Z,8.20
2019-03-27T06:20:26.324Z,8.20
2019-03-27T06:22:54.555Z,8.20
2019-03-27T06:25:22.683Z,8.20
2019-03-27T06:27:51.500Z,8.20
2019-03-27T06:30:19.621Z,8.30
2019-03-27T06:32:47.652Z,8.40
2019-03-27T06:35:15.765Z,8.40
2019-03-27T06:37:44.076Z,8.40
2019-03-27T06:40:12.385Z,8.40
2019-03-27T06:42:40.441Z,8.40
2019-03-27T06:45:09.516Z,8.40
2019-03-27T06:47:37.612Z,8.40
2019-03-27T06:50:06.401Z,8.00
2019-03-27T06:52:34.533Z,7.90
2019-03-27T06:55:02.693Z,7.90
2019-03-27T06:57:30.820Z,7.90
2019-03-27T06:59:58.881Z,7.90
2019-03-27T07:02:29.011Z,7.90
2019-03-27T07:04:59.229Z,7.90
2019-03-27T07:07:28.985Z,7.80
2019-03-27T07:10:02.526Z,7.60
2019-03-27T07:12:31.442Z,7.70
2019-03-27T07:14:59.637Z,7.90
2019-03-27T07:17:40.559Z,7.90
2019-03-27T07:20:10.185Z,8.10
2019-03-27T07:22:39.500Z,8.10
2019-03-27T07:25:10.241Z,8.10
2019-03-27T07:27:38.469Z,8.20
2019-03-27T07:30:08.379Z,8.20
2019-03-27T07:32:36.492Z,8.10
2019-03-27T07:35:04.920Z,8.10
2019-03-27T07:37:33.073Z,8.10
2019-03-27T07:40:01.258Z,8.20
2019-03-27T07:42:29.793Z,8.30
2019-03-27T07:44:57.945Z,8.30
2019-03-27T07:47:29.380Z,8.50
2019-03-27T07:49:57.417Z,8.50
2019-03-27T07:52:25.600Z,8.50
2019-03-27T07:54:53.637Z,8.50
2019-03-27T07:57:21.798Z,8.60
2019-03-27T07:59:50.224Z,8.70
2019-03-27T08:02:19.850Z,8.60
2019-03-27T08:04:52.650Z,8.40
2019-03-27T08:11:38.815Z,8.20
2019-03-27T08:14:14.366Z,8.10
2019-03-27T08:17:01.786Z,8.20
2019-03-27T08:19:30.118Z,8.20
2019-03-27T08:22:03.761Z,7.90
2019-03-27T08:24:37.221Z,7.90
2019-03-27T08:27:08.523Z,8.10
2019-03-27T08:29:47.744Z,8.10
2019-03-27T08:32:14.062Z,8.10
2019-03-27T08:34:42.273Z,8.20
2019-03-27T08:37:11.178Z,8.30
2019-03-27T08:39:42.518Z,8.50
2019-03-27T08:42:11.584Z,8.40
2019-03-27T08:44:45.246Z,8.50
2019-03-27T08:47:13.779Z,8.60
2019-03-27T08:49:42.199Z,8.90
2019-03-27T08:52:10.885Z,9.10
2019-03-27T08:54:46.352Z,9.00
2019-03-27T08:57:14.461Z,8.90
2019-03-27T08:59:45.654Z,9.00
2019-03-27T09:02:15.730Z,9.10
2019-03-27T09:04:43.791Z,8.90
2019-03-27T09:07:11.888Z,8.80
2019-03-27T09:09:40.493Z,8.80
2019-03-27T09:12:08.749Z,8.90
2019-03-27T09:14:36.976Z,9.00
2019-03-27T09:17:05.684Z,9.20
2019-03-27T09:19:35.977Z,9.50
2019-03-27T09:22:03.858Z,9.50
2019-03-27T09:24:31.893Z,9.80
2019-03-27T09:27:02.773Z,10.00
2019-03-27T09:29:31.157Z,10.10
2019-03-27T09:31:59.303Z,10.40
2019-03-27T09:34:27.624Z,10.50
2019-03-27T09:36:55.893Z,10.60
2019-03-27T09:39:24.718Z,10.60
2019-03-27T09:41:53.509Z,10.50
2019-03-27T09:44:21.576Z,10.50
2019-03-27T09:46:49.816Z,10.60
2019-03-27T09:49:17.919Z,10.60
2019-03-27T09:51:46.006Z,10.80
2019-03-27T09:54:14.248Z,11.00
2019-03-27T09:56:42.374Z,11.10
2019-03-27T09:59:10.478Z,11.30
2019-03-27T10:01:39.645Z,11.40
2019-03-27T10:04:08.005Z,11.60
2019-03-27T10:06:36.160Z,12.00
2019-03-27T10:09:06.422Z,12.20
2019-03-27T10:11:34.677Z,11.80
2019-03-27T10:14:02.748Z,11.80
2019-03-27T10:16:30.934Z,12.00
2019-03-27T10:18:59.225Z,12.20
2019-03-27T10:21:27.686Z,12.50
2019-03-27T10:23:56.882Z,12.20
2019-03-27T10:26:25.024Z,12.10
2019-03-27T10:28:54.113Z,11.80
2019-03-27T10:31:22.383Z,11.80
2019-03-27T10:34:03.642Z,11.60
2019-03-27T10:36:35.126Z,11.70
2019-03-27T10:39:09.352Z,11.90
2019-03-27T10:41:38.015Z,12.30
2019-03-27T10:44:06.354Z,12.70
2019-03-27T10:46:34.691Z,12.60
2019-03-27T10:49:03.753Z,12.50
2019-03-27T10:51:32.093Z,12.50
2019-03-27T10:54:03.805Z,12.60
2019-03-27T10:56:32.257Z,12.30
2019-03-27T10:59:00.410Z,12.20
2019-03-27T11:01:28.700Z,11.90
2019-03-27T11:03:57.951Z,11.90
2019-03-27T11:06:26.376Z,12.10
2019-03-27T11:08:54.869Z,12.00
2019-03-27T11:11:23.249Z,11.90
2019-03-27T11:13:52.308Z,12.00
2019-03-27T11:16:20.994Z,12.00
2019-03-27T11:18:51.574Z,12.00
2019-03-27T11:21:20.965Z,11.90
2019-03-27T11:26:59.246Z,11.50
2019-03-27T11:29:27.532Z,11.50
2019-03-27T11:32:28.702Z,11.60
2019-03-27T11:35:04.505Z,11.50
2019-03-27T11:37:35.096Z,11.60
2019-03-27T11:40:12.599Z,11.40
2019-03-27T11:42:47.082Z,11.40
2019-03-27T11:45:15.807Z,11.60
2019-03-27T11:47:49.344Z,11.90
2019-03-27T11:50:28.317Z,12.00
2019-03-27T11:53:05.842Z,11.90
2019-03-27T11:55:37.603Z,11.80
2019-03-27T11:58:06.517Z,11.80
2019-03-27T12:00:38.142Z,11.70
2019-03-27T12:03:15.299Z,11.70
2019-03-27T12:05:54.594Z,11.50
2019-03-27T12:08:23.242Z,11.40
2019-03-27T12:11:34.169Z,11.30
2019-03-27T12:14:03.064Z,11.20
2019-03-27T12:16:49.994Z,11.20
2019-03-27T12:19:16.240Z,11.30
2019-03-27T12:21:49.886Z,11.50
2019-03-27T12:24:18.183Z,11.60
2019-03-27T12:26:47.241Z,11.80
2019-03-27T12:29:18.074Z,11.90
2019-03-27T12:31:45.897Z,12.00
2019-03-27T12:34:23.887Z,12.20
2019-03-27T12:36:52.410Z,12.30
2019-03-27T12:42:25.874Z,12.10
2019-03-27T12:45:13.198Z,12.30
2019-03-27T12:48:05.578Z,12.30
2019-03-27T12:50:44.387Z,12.30
2019-03-27T12:53:12.504Z,12.10
2019-03-27T12:55:48.304Z,12.00
2019-03-27T12:58:26.418Z,11.90
2019-03-27T13:00:55.894Z,11.70
2019-03-27T13:03:26.717Z,11.60
2019-03-27T13:06:07.514Z,11.70
2019-03-27T13:08:45.736Z,11.70
2019-03-27T13:11:14.386Z,11.80
2019-03-27T13:13:42.782Z,11.70
2019-03-27T13:16:11.080Z,11.70
2019-03-27T13:18:39.613Z,11.70
2019-03-27T13:21:08.494Z,11.50
2019-03-27T13:23:37.357Z,11.40
2019-03-27T13:26:05.581Z,11.50
2019-03-27T13:28:47.834Z,11.60
2019-03-27T13:31:05.874Z,11.70
2019-03-27T13:33:34.223Z,11.70
2019-03-27T13:36:02.683Z,11.70
2019-03-27T13:38:31.281Z,11.70
2019-03-27T13:41:02.756Z,11.70
2019-03-27T13:43:31.100Z,11.70
2019-03-27T13:45:59.706Z,11.80
2019-03-27T13:48:28.157Z,11.80
2019-03-27T13:50:56.557Z,11.70
2019-03-27T13:53:25.737Z,11.70
2019-03-27T13:55:54.181Z,11.80
2019-03-27T13:58:23.125Z,11.90
2019-03-27T14:00:51.389Z,11.90
2019-03-27T14:03:19.697Z,11.90
2019-03-27T14:05:48.021Z,12.00
2019-03-27T14:08:16.084Z,12.00
2019-03-27T14:10:44.529Z,12.10
2019-03-27T14:13:12.735Z,12.20
2019-03-27T14:15:40.976Z,12.10
2019-03-27T14:18:09.374Z,12.30
2019-03-27T14:20:43.369Z,12.30
2019-03-27T14:23:11.921Z,12.30
2019-03-27T14:25:40.275Z,12.40
2019-03-27T14:28:09.256Z,12.30
2019-03-27T14:31:03.021Z,12.30
2019-03-27T14:33:31.278Z,12.30
2019-03-27T14:35:59.825Z,12.20
2019-03-27T14:38:28.013Z,12.20
2019-03-27T14:40:56.371Z,12.20
2019-03-27T14:43:27.093Z,12.30
2019-03-27T14:45:54.717Z,12.30
2019-03-27T14:48:23.144Z,12.30
2019-03-27T14:50:51.473Z,12.10
2019-03-27T14:53:19.821Z,12.00
2019-03-27T14:55:48.032Z,12.10
2019-03-27T14:58:16.217Z,12.10
2019-03-27T15:00:45.019Z,12.00
2019-03-27T15:03:13.230Z,11.90
2019-03-27T15:05:46.713Z,12.00
2019-03-27T15:08:15.028Z,12.10
2019-03-27T15:10:43.434Z,12.20
2019-03-27T15:13:15.048Z,12.30
2019-03-27T15:15:41.742Z,12.50
2019-03-27T15:18:10.131Z,12.70
2019-03-27T15:20:39.098Z,12.70
2019-03-27T15:23:07.503Z,12.80
2019-03-27T15:25:38.393Z,12.80
2019-03-27T15:28:06.918Z,12.90
2019-03-27T15:30:35.270Z,12.90
2019-03-27T15:33:06.981Z,12.90
2019-03-27T15:35:35.442Z,13.10
2019-03-27T15:38:05.313Z,13.10
2019-03-27T15:40:42.234Z,13.10
2019-03-27T15:43:11.023Z,13.00
2019-03-27T15:45:39.527Z,13.00
2019-03-27T15:48:09.803Z,12.90
2019-03-27T15:50:38.183Z,12.80
2019-03-27T15:53:06.681Z,12.80
2019-03-27T15:55:35.498Z,12.80
2019-03-27T15:58:04.329Z,12.80
2019-03-27T16:00:35.011Z,12.90
2019-03-27T16:06:21.705Z,12.70
2019-03-27T16:08:50.609Z,12.60
2019-03-27T16:11:19.005Z,12.50
2019-03-27T16:13:47.502Z,12.50
2019-03-27T16:16:20.325Z,12.50
2019-03-27T16:18:53.324Z,12.50
2019-03-27T16:21:21.916Z,12.50
2019-03-27T16:24:06.287Z,12.40
2019-03-27T16:26:30.623Z,12.50
2019-03-27T16:29:00.170Z,12.70
2019-03-27T16:31:28.222Z,12.80
2019-03-27T16:33:56.288Z,12.90
2019-03-27T16:36:37.596Z,12.90
2019-03-27T16:39:13.335Z,12.70
2019-03-27T16:41:48.018Z,12.60
2019-03-27T16:44:18.316Z,12.50
2019-03-27T16:46:48.155Z,12.60
2019-03-27T16:49:16.370Z,12.60
2019-03-27T16:51:44.746Z,12.70
2019-03-27T16:54:12.785Z,12.70
2019-03-27T16:56:41.128Z,12.70
2019-03-27T16:59:09.284Z,12.70
2019-03-27T17:04:43.325Z,12.70
2019-03-27T17:07:20.558Z,12.60
2019-03-27T17:09:53.182Z,12.50
2019-03-27T17:12:21.199Z,12.40
2019-03-27T17:14:49.368Z,12.30
2019-03-27T17:17:17.822Z,12.40
2019-03-27T17:19:46.209Z,12.30
2019-03-27T17:23:21.527Z,12.30
2019-03-27T17:25:57.577Z,12.20
2019-03-27T17:28:25.713Z,12.20
2019-03-27T17:30:53.701Z,12.10
2019-03-27T17:33:21.929Z,12.10
2019-03-27T17:35:49.987Z,12.20
2019-03-27T17:38:18.354Z,12.20
2019-03-27T17:40:46.989Z,12.20
2019-03-27T17:43:15.036Z,12.10
2019-03-27T17:45:45.458Z,12.10
2019-03-27T17:48:13.836Z,12.10
2019-03-27T17:50:41.840Z,12.10
2019-03-27T17:53:10.157Z,12.10
2019-03-27T17:55:38.228Z,12.10
2019-03-27T17:58:06.450Z,12.10
2019-03-27T18:00:48.802Z,11.90
2019-03-27T18:03:17.114Z,11.90
2019-03-27T18:05:53.917Z,11.90
2019-03-27T18:08:22.627Z,11.70
2019-03-27T18:10:50.739Z,11.60
2019-03-27T18:13:18.780Z,11.70
2019-03-27T18:15:57.010Z,11.70
2019-03-27T18:18:28.877Z,11.70
2019-03-27T18:20:57.382Z,11.50
2019-03-27T18:23:45.363Z,11.50
2019-03-27T18:26:04.220Z,11.50
2019-03-27T18:28:32.849Z,11.60
2019-03-27T18:31:01.005Z,11.70
2019-03-27T18:33:29.492Z,11.80
2019-03-27T18:35:57.745Z,11.70
2019-03-27T18:38:26.203Z,11.80
2019-03-27T18:40:54.738Z,11.80
2019-03-27T18:43:23.292Z,11.70
2019-03-27T18:45:51.727Z,11.80
2019-03-27T18:48:20.219Z,11.80
2019-03-27T18:50:48.498Z,11.80
2019-03-27T18:53:16.709Z,11.70
2019-03-27T18:55:47.283Z,11.60
2019-03-27T18:58:15.492Z,11.70
2019-03-27T19:00:43.673Z,11.70
2019-03-27T19:03:12.001Z,11.60
2019-03-27T19:05:40.148Z,11.60
2019-03-27T19:08:09.107Z,11.60
2019-03-27T19:10:38.289Z,11.50
2019-03-27T19:13:10.369Z,11.50
2019-03-27T19:15:49.293Z,11.40
2019-03-27T19:18:28.114Z,11.40
2019-03-27T19:21:05.867Z,11.30
2019-03-27T19:23:34.284Z,11.30
2019-03-27T19:26:02.857Z,11.20
2019-03-27T19:28:37.093Z,11.10
2019-03-27T19:31:05.541Z,11.10
2019-03-27T19:33:33.827Z,11.00
2019-03-27T19:36:02.275Z,11.00
2019-03-27T19:38:30.813Z,11.00
2019-03-27T19:40:58.954Z,10.90
2019-03-27T19:43:27.118Z,10.80
2019-03-27T19:45:57.629Z,10.90
2019-03-27T19:48:25.868Z,10.80
2019-03-27T19:50:54.277Z,10.80
2019-03-27T19:53:22.384Z,10.80
2019-03-27T19:55:50.585Z,10.80
2019-03-27T19:58:18.799Z,10.80
2019-03-27T20:00:47.229Z,10.80
2019-03-27T20:03:15.517Z,10.60
2019-03-27T20:05:44.839Z,10.60
2019-03-27T20:08:13.207Z,10.50
2019-03-27T20:10:44.349Z,10.40
2019-03-27T20:13:12.623Z,10.40
2019-03-27T20:15:43.505Z,10.40
2019-03-27T20:18:11.890Z,10.40
2019-03-27T20:20:42.637Z,10.40
2019-03-27T20:23:18.321Z,10.20
2019-03-27T20:25:47.157Z,10.20
2019-03-27T20:28:15.947Z,10.10
2019-03-27T20:30:44.386Z,10.10
2019-03-27T20:33:12.553Z,10.10
2019-03-27T20:35:41.133Z,10.20
2019-03-27T20:38:09.721Z,10.10
2019-03-27T20:40:39.363Z,10.10
2019-03-27T20:43:07.859Z,10.10
2019-03-27T20:45:39.803Z,10.00
2019-03-27T20:48:11.401Z,9.90
2019-03-27T20:50:41.674Z,9.80
2019-03-27T20:53:10.200Z,9.70
2019-03-27T20:55:43.427Z,9.70
2019-03-27T20:58:12.229Z,9.70
2019-03-27T21:00:40.841Z,9.70
2019-03-27T21:03:09.554Z,9.60
2019-03-27T21:05:40.579Z,9.60
2019-03-27T21:08:09.216Z,9.60
2019-03-27T21:10:37.927Z,9.50
2019-03-27T21:13:09.357Z,9.50
2019-03-27T21:15:40.639Z,9.40
2019-03-27T21:18:15.375Z,9.40
2019-03-27T21:20:43.975Z,9.30
2019-03-27T21:23:15.318Z,9.10
2019-03-27T21:25:44.064Z,8.90
2019-03-27T21:28:14.716Z,8.90
2019-03-27T21:30:43.485Z,8.90
2019-03-27T21:33:12.502Z,8.80
2019-03-27T21:35:55.286Z,8.90
2019-03-27T21:38:29.354Z,8.80
2019-03-27T21:40:59.272Z,8.80
2019-03-27T21:43:27.623Z,8.80
2019-03-27T21:45:58.257Z,8.80
2019-03-27T21:48:26.645Z,8.80
2019-03-27T21:50:54.997Z,8.70
2019-03-27T21:53:25.491Z,8.60
2019-03-27T21:55:54.517Z,8.40
2019-03-27T21:58:25.851Z,8.40
2019-03-27T22:00:54.217Z,8.30
2019-03-27T22:03:22.276Z,8.40
2019-03-27T22:05:50.510Z,8.40
2019-03-27T22:08:19.640Z,8.40
2019-03-27T22:10:47.927Z,8.40
2019-03-27T22:13:16.076Z,8.30
2019-03-27T22:15:44.857Z,8.20
2019-03-27T22:18:13.046Z,8.10
2019-03-27T22:20:41.444Z,7.90
2019-03-27T22:23:09.659Z,7.90
2019-03-27T22:25:38.199Z,7.90
2019-03-27T22:28:08.529Z,7.80
2019-03-27T22:30:38.752Z,7.70
2019-03-27T22:33:07.865Z,7.70
2019-03-27T22:35:36.557Z,7.70
2019-03-27T22:38:05.107Z,7.70
2019-03-27T22:40:33.274Z,7.70
2019-03-27T22:43:02.149Z,7.60
2019-03-27T22:45:30.958Z,7.60
2019-03-27T22:48:02.096Z,7.60
2019-03-27T22:50:30.655Z,7.60
2019-03-27T22:53:00.362Z,7.50
2019-03-27T22:55:29.823Z,7.50
2019-03-27T22:57:58.199Z,7.40
2019-03-27T23:00:45.807Z,7.30
2019-03-27T23:03:18.434Z,7.20
2019-03-27T23:05:44.610Z,7.10
2019-03-27T23:08:13.532Z,6.90
2019-03-27T23:10:42.029Z,6.80
2019-03-27T23:13:11.107Z,6.80
2019-03-27T23:15:41.607Z,6.80
2019-03-27T23:18:09.897Z,6.80
2019-03-27T23:20:38.173Z,6.80
2019-03-27T23:23:06.565Z,6.80
2019-03-27T23:25:34.688Z,6.70
2019-03-27T23:28:02.992Z,6.50
2019-03-27T23:30:31.189Z,6.40
2019-03-27T23:32:59.470Z,6.30
2019-03-27T23:35:27.717Z,6.30
2019-03-27T23:37:55.993Z,6.20
2019-03-27T23:40:24.214Z,6.20
2019-03-27T23:42:52.256Z,6.10
2019-03-27T23:45:20.370Z,6.10
2019-03-27T23:47:48.441Z,6.30
2019-03-27T23:50:16.448Z,6.30
2019-03-27T23:52:44.642Z,6.20
2019-03-27T23:55:12.784Z,6.20
2019-03-27T23:57:42.825Z,6.30
